<?xml version="1.0" encoding="UTF-8" standalone="no" ?>
<gpx xmlns="http://www.topografix.com/GPX/1/1" xmlns:xsi="http://www.w3.org/2001/XMLSchema-instance" xsi:schemaLocation="http://www.topografix.com/GPX/1/1 http://www.topografix.com/GPX/1/1/gpx.xsd" version="1.1" creator="VisuGPX - https://www.visugpx.com">
  <metadata>
    <name>Croix de Chamrousse par les Pourettes</name>
    <desc><![CDATA[Croix de Chamrousse par les Pourettes]]></desc>
  </metadata>
  <trk>
    <name><![CDATA[ACTIVE LOG 038]]></name>
    <trkseg>
      <trkpt lat="45.13985" lon="5.88887">
        <ele>1406.0654296875</ele>
        <time>2012-12-16T09:40:22Z</time>
      </trkpt>
      <trkpt lat="45.13978" lon="5.88894">
        <ele>1407.0268554688</ele>
        <time>2012-12-16T09:41:22Z</time>
      </trkpt>
      <trkpt lat="45.13973" lon="5.88901">
        <ele>1405.5849609375</ele>
        <time>2012-12-16T09:42:22Z</time>
      </trkpt>
      <trkpt lat="45.13971" lon="5.889">
        <ele>1405.5849609375</ele>
        <time>2012-12-16T09:43:22Z</time>
      </trkpt>
      <trkpt lat="45.13968" lon="5.88907">
        <ele>1407.0268554688</ele>
        <time>2012-12-16T09:44:22Z</time>
      </trkpt>
      <trkpt lat="45.13969" lon="5.88899">
        <ele>1406.5461425781</ele>
        <time>2012-12-16T09:45:22Z</time>
      </trkpt>
      <trkpt lat="45.14005" lon="5.88824">
        <ele>1412.3139648438</ele>
        <time>2012-12-16T09:46:22Z</time>
      </trkpt>
      <trkpt lat="45.14003" lon="5.88809">
        <ele>1410.3913574219</ele>
        <time>2012-12-16T09:47:22Z</time>
      </trkpt>
      <trkpt lat="45.1398" lon="5.88804">
        <ele>1413.755859375</ele>
        <time>2012-12-16T09:48:22Z</time>
      </trkpt>
      <trkpt lat="45.13944" lon="5.88808">
        <ele>1421.4465332031</ele>
        <time>2012-12-16T09:49:22Z</time>
      </trkpt>
      <trkpt lat="45.13914" lon="5.88813">
        <ele>1429.6176757812</ele>
        <time>2012-12-16T09:50:22Z</time>
      </trkpt>
      <trkpt lat="45.13891" lon="5.88792">
        <ele>1437.7890625</ele>
        <time>2012-12-16T09:51:22Z</time>
      </trkpt>
      <trkpt lat="45.13856" lon="5.88809">
        <ele>1447.8828125</ele>
        <time>2012-12-16T09:52:22Z</time>
      </trkpt>
      <trkpt lat="45.13826" lon="5.88829">
        <ele>1457.49609375</ele>
        <time>2012-12-16T09:53:22Z</time>
      </trkpt>
      <trkpt lat="45.13809" lon="5.88823">
        <ele>1462.3024902344</ele>
        <time>2012-12-16T09:54:22Z</time>
      </trkpt>
      <trkpt lat="45.13791" lon="5.88816">
        <ele>1468.5512695312</ele>
        <time>2012-12-16T09:55:22Z</time>
      </trkpt>
      <trkpt lat="45.13767" lon="5.88812">
        <ele>1477.203125</ele>
        <time>2012-12-16T09:56:22Z</time>
      </trkpt>
      <trkpt lat="45.13757" lon="5.88816">
        <ele>1481.0483398438</ele>
        <time>2012-12-16T09:57:22Z</time>
      </trkpt>
      <trkpt lat="45.13757" lon="5.88817">
        <ele>1482.0095214844</ele>
        <time>2012-12-16T09:58:22Z</time>
      </trkpt>
      <trkpt lat="45.13754" lon="5.88819">
        <ele>1482.490234375</ele>
        <time>2012-12-16T09:59:22Z</time>
      </trkpt>
      <trkpt lat="45.13734" lon="5.88816">
        <ele>1490.1809082031</ele>
        <time>2012-12-16T10:00:22Z</time>
      </trkpt>
      <trkpt lat="45.13714" lon="5.88812">
        <ele>1496.9099121094</ele>
        <time>2012-12-16T10:01:22Z</time>
      </trkpt>
      <trkpt lat="45.13715" lon="5.88812">
        <ele>1497.8713378906</ele>
        <time>2012-12-16T10:02:22Z</time>
      </trkpt>
      <trkpt lat="45.13688" lon="5.888">
        <ele>1504.1201171875</ele>
        <time>2012-12-16T10:03:22Z</time>
      </trkpt>
      <trkpt lat="45.13653" lon="5.88791">
        <ele>1512.7717285156</ele>
        <time>2012-12-16T10:04:22Z</time>
      </trkpt>
      <trkpt lat="45.13622" lon="5.88792">
        <ele>1524.3076171875</ele>
        <time>2012-12-16T10:05:22Z</time>
      </trkpt>
      <trkpt lat="45.1359" lon="5.888">
        <ele>1532.4790039062</ele>
        <time>2012-12-16T10:06:22Z</time>
      </trkpt>
      <trkpt lat="45.13556" lon="5.88802">
        <ele>1540.6499023438</ele>
        <time>2012-12-16T10:07:22Z</time>
      </trkpt>
      <trkpt lat="45.13528" lon="5.88797">
        <ele>1551.224609375</ele>
        <time>2012-12-16T10:08:22Z</time>
      </trkpt>
      <trkpt lat="45.13495" lon="5.88789">
        <ele>1562.2795410156</ele>
        <time>2012-12-16T10:09:22Z</time>
      </trkpt>
      <trkpt lat="45.13466" lon="5.88777">
        <ele>1573.3349609375</ele>
        <time>2012-12-16T10:10:22Z</time>
      </trkpt>
      <trkpt lat="45.13439" lon="5.8878">
        <ele>1583.9094238281</ele>
        <time>2012-12-16T10:11:22Z</time>
      </trkpt>
      <trkpt lat="45.1342" lon="5.88787">
        <ele>1592.5612792969</ele>
        <time>2012-12-16T10:12:22Z</time>
      </trkpt>
      <trkpt lat="45.13431" lon="5.88767">
        <ele>1588.7160644531</ele>
        <time>2012-12-16T10:13:22Z</time>
      </trkpt>
      <trkpt lat="45.13431" lon="5.88767">
        <ele>1588.7160644531</ele>
        <time>2012-12-16T10:14:22Z</time>
      </trkpt>
      <trkpt lat="45.13415" lon="5.88769">
        <ele>1598.8098144531</ele>
        <time>2012-12-16T10:15:22Z</time>
      </trkpt>
      <trkpt lat="45.13383" lon="5.8879">
        <ele>1610.3454589844</ele>
        <time>2012-12-16T10:16:22Z</time>
      </trkpt>
      <trkpt lat="45.13357" lon="5.88804">
        <ele>1621.8813476562</ele>
        <time>2012-12-16T10:17:22Z</time>
      </trkpt>
      <trkpt lat="45.1334" lon="5.88804">
        <ele>1628.1301269531</ele>
        <time>2012-12-16T10:18:22Z</time>
      </trkpt>
      <trkpt lat="45.1334" lon="5.88803">
        <ele>1628.6108398438</ele>
        <time>2012-12-16T10:19:22Z</time>
      </trkpt>
      <trkpt lat="45.13331" lon="5.8885">
        <ele>1641.5883789062</ele>
        <time>2012-12-16T10:20:22Z</time>
      </trkpt>
      <trkpt lat="45.13337" lon="5.88914">
        <ele>1653.6049804688</ele>
        <time>2012-12-16T10:21:22Z</time>
      </trkpt>
      <trkpt lat="45.13343" lon="5.88971">
        <ele>1664.1794433594</ele>
        <time>2012-12-16T10:22:22Z</time>
      </trkpt>
      <trkpt lat="45.13334" lon="5.89021">
        <ele>1674.75390625</ele>
        <time>2012-12-16T10:23:22Z</time>
      </trkpt>
      <trkpt lat="45.1333" lon="5.89042">
        <ele>1671.8698730469</ele>
        <time>2012-12-16T10:24:22Z</time>
      </trkpt>
      <trkpt lat="45.13312" lon="5.89101">
        <ele>1673.7924804688</ele>
        <time>2012-12-16T10:25:22Z</time>
      </trkpt>
      <trkpt lat="45.13323" lon="5.89126">
        <ele>1675.234375</ele>
        <time>2012-12-16T10:26:22Z</time>
      </trkpt>
      <trkpt lat="45.13353" lon="5.89181">
        <ele>1680.5219726562</ele>
        <time>2012-12-16T10:27:22Z</time>
      </trkpt>
      <trkpt lat="45.13366" lon="5.89237">
        <ele>1691.0961914062</ele>
        <time>2012-12-16T10:28:22Z</time>
      </trkpt>
      <trkpt lat="45.13382" lon="5.89279">
        <ele>1698.7868652344</ele>
        <time>2012-12-16T10:29:22Z</time>
      </trkpt>
      <trkpt lat="45.13412" lon="5.89322">
        <ele>1704.5546875</ele>
        <time>2012-12-16T10:30:22Z</time>
      </trkpt>
      <trkpt lat="45.13428" lon="5.8937">
        <ele>1709.8420410156</ele>
        <time>2012-12-16T10:31:22Z</time>
      </trkpt>
      <trkpt lat="45.13437" lon="5.89423">
        <ele>1718.4938964844</ele>
        <time>2012-12-16T10:32:22Z</time>
      </trkpt>
      <trkpt lat="45.13441" lon="5.89452">
        <ele>1723.7810058594</ele>
        <time>2012-12-16T10:33:22Z</time>
      </trkpt>
      <trkpt lat="45.13445" lon="5.89472">
        <ele>1726.1845703125</ele>
        <time>2012-12-16T10:34:22Z</time>
      </trkpt>
      <trkpt lat="45.13437" lon="5.89481">
        <ele>1729.068359375</ele>
        <time>2012-12-16T10:35:22Z</time>
      </trkpt>
      <trkpt lat="45.13434" lon="5.89483">
        <ele>1730.0297851562</ele>
        <time>2012-12-16T10:36:22Z</time>
      </trkpt>
      <trkpt lat="45.13454" lon="5.89495">
        <ele>1731.9523925781</ele>
        <time>2012-12-16T10:37:22Z</time>
      </trkpt>
      <trkpt lat="45.13451" lon="5.89519">
        <ele>1741.5656738281</ele>
        <time>2012-12-16T10:38:22Z</time>
      </trkpt>
      <trkpt lat="45.13471" lon="5.89534">
        <ele>1751.1787109375</ele>
        <time>2012-12-16T10:39:22Z</time>
      </trkpt>
      <trkpt lat="45.13477" lon="5.89555">
        <ele>1763.1953125</ele>
        <time>2012-12-16T10:40:22Z</time>
      </trkpt>
      <trkpt lat="45.13501" lon="5.89578">
        <ele>1768.482421875</ele>
        <time>2012-12-16T10:41:22Z</time>
      </trkpt>
      <trkpt lat="45.13481" lon="5.89634">
        <ele>1780.9797363281</ele>
        <time>2012-12-16T10:42:22Z</time>
      </trkpt>
      <trkpt lat="45.13449" lon="5.89637">
        <ele>1787.7087402344</ele>
        <time>2012-12-16T10:43:22Z</time>
      </trkpt>
      <trkpt lat="45.13441" lon="5.89647">
        <ele>1791.0734863281</ele>
        <time>2012-12-16T10:44:22Z</time>
      </trkpt>
      <trkpt lat="45.1344" lon="5.89665">
        <ele>1794.4379882812</ele>
        <time>2012-12-16T10:45:22Z</time>
      </trkpt>
      <trkpt lat="45.13441" lon="5.89664">
        <ele>1794.4379882812</ele>
        <time>2012-12-16T10:46:22Z</time>
      </trkpt>
      <trkpt lat="45.13441" lon="5.89664">
        <ele>1794.4379882812</ele>
        <time>2012-12-16T10:47:22Z</time>
      </trkpt>
      <trkpt lat="45.1344" lon="5.89664">
        <ele>1793.4768066406</ele>
        <time>2012-12-16T10:48:22Z</time>
      </trkpt>
      <trkpt lat="45.13444" lon="5.89673">
        <ele>1792.99609375</ele>
        <time>2012-12-16T10:49:22Z</time>
      </trkpt>
      <trkpt lat="45.13468" lon="5.89746">
        <ele>1784.3442382812</ele>
        <time>2012-12-16T10:50:22Z</time>
      </trkpt>
      <trkpt lat="45.13509" lon="5.89809">
        <ele>1782.4216308594</ele>
        <time>2012-12-16T10:51:22Z</time>
      </trkpt>
      <trkpt lat="45.13526" lon="5.89833">
        <ele>1779.0568847656</ele>
        <time>2012-12-16T10:52:22Z</time>
      </trkpt>
      <trkpt lat="45.13532" lon="5.89851">
        <ele>1776.6538085938</ele>
        <time>2012-12-16T10:53:22Z</time>
      </trkpt>
      <trkpt lat="45.13522" lon="5.89887">
        <ele>1763.67578125</ele>
        <time>2012-12-16T10:54:22Z</time>
      </trkpt>
      <trkpt lat="45.13482" lon="5.89923">
        <ele>1756.4660644531</ele>
        <time>2012-12-16T10:55:22Z</time>
      </trkpt>
      <trkpt lat="45.13484" lon="5.89923">
        <ele>1755.5046386719</ele>
        <time>2012-12-16T10:56:22Z</time>
      </trkpt>
      <trkpt lat="45.13491" lon="5.89928">
        <ele>1754.5432128906</ele>
        <time>2012-12-16T10:57:22Z</time>
      </trkpt>
      <trkpt lat="45.13524" lon="5.89942">
        <ele>1755.0239257812</ele>
        <time>2012-12-16T10:58:22Z</time>
      </trkpt>
      <trkpt lat="45.13531" lon="5.8995">
        <ele>1755.0239257812</ele>
        <time>2012-12-16T10:59:22Z</time>
      </trkpt>
      <trkpt lat="45.13531" lon="5.8995">
        <ele>1753.58203125</ele>
        <time>2012-12-16T11:00:22Z</time>
      </trkpt>
      <trkpt lat="45.13531" lon="5.8995">
        <ele>1753.58203125</ele>
        <time>2012-12-16T11:01:22Z</time>
      </trkpt>
      <trkpt lat="45.13531" lon="5.8995">
        <ele>1753.58203125</ele>
        <time>2012-12-16T11:02:22Z</time>
      </trkpt>
      <trkpt lat="45.13531" lon="5.8995">
        <ele>1753.58203125</ele>
        <time>2012-12-16T11:03:22Z</time>
      </trkpt>
      <trkpt lat="45.13531" lon="5.8995">
        <ele>1753.58203125</ele>
        <time>2012-12-16T11:04:22Z</time>
      </trkpt>
      <trkpt lat="45.13531" lon="5.8995">
        <ele>1753.58203125</ele>
        <time>2012-12-16T11:05:22Z</time>
      </trkpt>
      <trkpt lat="45.13531" lon="5.8995">
        <ele>1754.0627441406</ele>
        <time>2012-12-16T11:06:22Z</time>
      </trkpt>
      <trkpt lat="45.13531" lon="5.8995">
        <ele>1754.0627441406</ele>
        <time>2012-12-16T11:07:22Z</time>
      </trkpt>
      <trkpt lat="45.13531" lon="5.8995">
        <ele>1754.0627441406</ele>
        <time>2012-12-16T11:08:22Z</time>
      </trkpt>
      <trkpt lat="45.13531" lon="5.8995">
        <ele>1754.0627441406</ele>
        <time>2012-12-16T11:09:22Z</time>
      </trkpt>
      <trkpt lat="45.13531" lon="5.8995">
        <ele>1754.0627441406</ele>
        <time>2012-12-16T11:10:22Z</time>
      </trkpt>
      <trkpt lat="45.13531" lon="5.8995">
        <ele>1754.5432128906</ele>
        <time>2012-12-16T11:11:22Z</time>
      </trkpt>
      <trkpt lat="45.13531" lon="5.8995">
        <ele>1754.5432128906</ele>
        <time>2012-12-16T11:12:22Z</time>
      </trkpt>
      <trkpt lat="45.13531" lon="5.8995">
        <ele>1754.5432128906</ele>
        <time>2012-12-16T11:13:22Z</time>
      </trkpt>
      <trkpt lat="45.13531" lon="5.8995">
        <ele>1755.0239257812</ele>
        <time>2012-12-16T11:14:22Z</time>
      </trkpt>
      <trkpt lat="45.13531" lon="5.8995">
        <ele>1755.0239257812</ele>
        <time>2012-12-16T11:15:22Z</time>
      </trkpt>
      <trkpt lat="45.13531" lon="5.8995">
        <ele>1755.0239257812</ele>
        <time>2012-12-16T11:16:22Z</time>
      </trkpt>
      <trkpt lat="45.13531" lon="5.8995">
        <ele>1755.5046386719</ele>
        <time>2012-12-16T11:17:22Z</time>
      </trkpt>
      <trkpt lat="45.13531" lon="5.8995">
        <ele>1755.5046386719</ele>
        <time>2012-12-16T11:18:22Z</time>
      </trkpt>
      <trkpt lat="45.1353" lon="5.8995">
        <ele>1755.5046386719</ele>
        <time>2012-12-16T11:19:22Z</time>
      </trkpt>
      <trkpt lat="45.1353" lon="5.8995">
        <ele>1755.0239257812</ele>
        <time>2012-12-16T11:20:22Z</time>
      </trkpt>
      <trkpt lat="45.1353" lon="5.8995">
        <ele>1755.0239257812</ele>
        <time>2012-12-16T11:21:22Z</time>
      </trkpt>
      <trkpt lat="45.1353" lon="5.8995">
        <ele>1755.0239257812</ele>
        <time>2012-12-16T11:22:22Z</time>
      </trkpt>
      <trkpt lat="45.1353" lon="5.8995">
        <ele>1755.0239257812</ele>
        <time>2012-12-16T11:23:22Z</time>
      </trkpt>
      <trkpt lat="45.1353" lon="5.8995">
        <ele>1755.0239257812</ele>
        <time>2012-12-16T11:24:22Z</time>
      </trkpt>
      <trkpt lat="45.1353" lon="5.8995">
        <ele>1755.0239257812</ele>
        <time>2012-12-16T11:25:22Z</time>
      </trkpt>
      <trkpt lat="45.1353" lon="5.8995">
        <ele>1754.5432128906</ele>
        <time>2012-12-16T11:26:22Z</time>
      </trkpt>
      <trkpt lat="45.1353" lon="5.89949">
        <ele>1754.5432128906</ele>
        <time>2012-12-16T11:27:22Z</time>
      </trkpt>
      <trkpt lat="45.1353" lon="5.8995">
        <ele>1754.5432128906</ele>
        <time>2012-12-16T11:28:22Z</time>
      </trkpt>
      <trkpt lat="45.13529" lon="5.8995">
        <ele>1754.5432128906</ele>
        <time>2012-12-16T11:29:22Z</time>
      </trkpt>
      <trkpt lat="45.13529" lon="5.8995">
        <ele>1754.5432128906</ele>
        <time>2012-12-16T11:30:22Z</time>
      </trkpt>
      <trkpt lat="45.13529" lon="5.8995">
        <ele>1754.5432128906</ele>
        <time>2012-12-16T11:31:22Z</time>
      </trkpt>
      <trkpt lat="45.13529" lon="5.8995">
        <ele>1754.5432128906</ele>
        <time>2012-12-16T11:32:22Z</time>
      </trkpt>
      <trkpt lat="45.13529" lon="5.8995">
        <ele>1754.5432128906</ele>
        <time>2012-12-16T11:33:22Z</time>
      </trkpt>
      <trkpt lat="45.13529" lon="5.8995">
        <ele>1754.0627441406</ele>
        <time>2012-12-16T11:34:22Z</time>
      </trkpt>
      <trkpt lat="45.13528" lon="5.8995">
        <ele>1754.0627441406</ele>
        <time>2012-12-16T11:35:22Z</time>
      </trkpt>
      <trkpt lat="45.13528" lon="5.8995">
        <ele>1754.0627441406</ele>
        <time>2012-12-16T11:36:22Z</time>
      </trkpt>
      <trkpt lat="45.13528" lon="5.8995">
        <ele>1754.0627441406</ele>
        <time>2012-12-16T11:37:22Z</time>
      </trkpt>
      <trkpt lat="45.13528" lon="5.8995">
        <ele>1754.0627441406</ele>
        <time>2012-12-16T11:38:22Z</time>
      </trkpt>
      <trkpt lat="45.13529" lon="5.8995">
        <ele>1754.0627441406</ele>
        <time>2012-12-16T11:39:22Z</time>
      </trkpt>
      <trkpt lat="45.13528" lon="5.8995">
        <ele>1753.58203125</ele>
        <time>2012-12-16T11:40:22Z</time>
      </trkpt>
      <trkpt lat="45.13529" lon="5.8995">
        <ele>1753.58203125</ele>
        <time>2012-12-16T11:41:22Z</time>
      </trkpt>
      <trkpt lat="45.13529" lon="5.8995">
        <ele>1753.58203125</ele>
        <time>2012-12-16T11:42:22Z</time>
      </trkpt>
      <trkpt lat="45.13529" lon="5.8995">
        <ele>1753.58203125</ele>
        <time>2012-12-16T11:43:22Z</time>
      </trkpt>
      <trkpt lat="45.13529" lon="5.8995">
        <ele>1753.58203125</ele>
        <time>2012-12-16T11:44:22Z</time>
      </trkpt>
      <trkpt lat="45.13529" lon="5.8995">
        <ele>1753.58203125</ele>
        <time>2012-12-16T11:45:22Z</time>
      </trkpt>
      <trkpt lat="45.13529" lon="5.8995">
        <ele>1753.1013183594</ele>
        <time>2012-12-16T11:46:22Z</time>
      </trkpt>
      <trkpt lat="45.13528" lon="5.8995">
        <ele>1753.1013183594</ele>
        <time>2012-12-16T11:47:22Z</time>
      </trkpt>
      <trkpt lat="45.13528" lon="5.8995">
        <ele>1753.1013183594</ele>
        <time>2012-12-16T11:48:22Z</time>
      </trkpt>
      <trkpt lat="45.13528" lon="5.8995">
        <ele>1752.6206054688</ele>
        <time>2012-12-16T11:49:22Z</time>
      </trkpt>
      <trkpt lat="45.13528" lon="5.8995">
        <ele>1752.6206054688</ele>
        <time>2012-12-16T11:50:22Z</time>
      </trkpt>
      <trkpt lat="45.13528" lon="5.8995">
        <ele>1752.6206054688</ele>
        <time>2012-12-16T11:51:22Z</time>
      </trkpt>
      <trkpt lat="45.13528" lon="5.8995">
        <ele>1752.6206054688</ele>
        <time>2012-12-16T11:52:22Z</time>
      </trkpt>
      <trkpt lat="45.13528" lon="5.89951">
        <ele>1752.1398925781</ele>
        <time>2012-12-16T11:53:22Z</time>
      </trkpt>
      <trkpt lat="45.13528" lon="5.89951">
        <ele>1752.1398925781</ele>
        <time>2012-12-16T11:54:22Z</time>
      </trkpt>
      <trkpt lat="45.13528" lon="5.89951">
        <ele>1752.1398925781</ele>
        <time>2012-12-16T11:55:22Z</time>
      </trkpt>
      <trkpt lat="45.13528" lon="5.89951">
        <ele>1752.1398925781</ele>
        <time>2012-12-16T11:56:22Z</time>
      </trkpt>
      <trkpt lat="45.13528" lon="5.89951">
        <ele>1752.1398925781</ele>
        <time>2012-12-16T11:57:22Z</time>
      </trkpt>
      <trkpt lat="45.13528" lon="5.89951">
        <ele>1751.6594238281</ele>
        <time>2012-12-16T11:58:22Z</time>
      </trkpt>
      <trkpt lat="45.13528" lon="5.89951">
        <ele>1751.6594238281</ele>
        <time>2012-12-16T11:59:22Z</time>
      </trkpt>
      <trkpt lat="45.13528" lon="5.89951">
        <ele>1751.6594238281</ele>
        <time>2012-12-16T12:00:22Z</time>
      </trkpt>
      <trkpt lat="45.13528" lon="5.89951">
        <ele>1751.1787109375</ele>
        <time>2012-12-16T12:01:22Z</time>
      </trkpt>
      <trkpt lat="45.13528" lon="5.89952">
        <ele>1751.1787109375</ele>
        <time>2012-12-16T12:02:22Z</time>
      </trkpt>
      <trkpt lat="45.13528" lon="5.89952">
        <ele>1751.1787109375</ele>
        <time>2012-12-16T12:03:22Z</time>
      </trkpt>
      <trkpt lat="45.13527" lon="5.89952">
        <ele>1751.1787109375</ele>
        <time>2012-12-16T12:04:22Z</time>
      </trkpt>
      <trkpt lat="45.13527" lon="5.89952">
        <ele>1751.1787109375</ele>
        <time>2012-12-16T12:05:22Z</time>
      </trkpt>
      <trkpt lat="45.13527" lon="5.89952">
        <ele>1750.6979980469</ele>
        <time>2012-12-16T12:06:22Z</time>
      </trkpt>
      <trkpt lat="45.13527" lon="5.89952">
        <ele>1750.6979980469</ele>
        <time>2012-12-16T12:07:22Z</time>
      </trkpt>
      <trkpt lat="45.13527" lon="5.89952">
        <ele>1750.6979980469</ele>
        <time>2012-12-16T12:08:22Z</time>
      </trkpt>
      <trkpt lat="45.13527" lon="5.89952">
        <ele>1750.6979980469</ele>
        <time>2012-12-16T12:09:22Z</time>
      </trkpt>
      <trkpt lat="45.13527" lon="5.89952">
        <ele>1750.6979980469</ele>
        <time>2012-12-16T12:10:22Z</time>
      </trkpt>
      <trkpt lat="45.13527" lon="5.89951">
        <ele>1750.6979980469</ele>
        <time>2012-12-16T12:11:22Z</time>
      </trkpt>
      <trkpt lat="45.13527" lon="5.89951">
        <ele>1750.6979980469</ele>
        <time>2012-12-16T12:12:22Z</time>
      </trkpt>
      <trkpt lat="45.13527" lon="5.89951">
        <ele>1750.6979980469</ele>
        <time>2012-12-16T12:13:22Z</time>
      </trkpt>
      <trkpt lat="45.13527" lon="5.89951">
        <ele>1750.6979980469</ele>
        <time>2012-12-16T12:14:22Z</time>
      </trkpt>
      <trkpt lat="45.13527" lon="5.89951">
        <ele>1750.6979980469</ele>
        <time>2012-12-16T12:15:22Z</time>
      </trkpt>
      <trkpt lat="45.13527" lon="5.89951">
        <ele>1750.6979980469</ele>
        <time>2012-12-16T12:16:22Z</time>
      </trkpt>
      <trkpt lat="45.13526" lon="5.89951">
        <ele>1750.6979980469</ele>
        <time>2012-12-16T12:17:22Z</time>
      </trkpt>
      <trkpt lat="45.13526" lon="5.89951">
        <ele>1750.6979980469</ele>
        <time>2012-12-16T12:18:22Z</time>
      </trkpt>
      <trkpt lat="45.13526" lon="5.89951">
        <ele>1750.6979980469</ele>
        <time>2012-12-16T12:19:22Z</time>
      </trkpt>
      <trkpt lat="45.13526" lon="5.89951">
        <ele>1750.6979980469</ele>
        <time>2012-12-16T12:20:22Z</time>
      </trkpt>
      <trkpt lat="45.13526" lon="5.89951">
        <ele>1750.6979980469</ele>
        <time>2012-12-16T12:21:22Z</time>
      </trkpt>
      <trkpt lat="45.13526" lon="5.89951">
        <ele>1750.6979980469</ele>
        <time>2012-12-16T12:22:22Z</time>
      </trkpt>
      <trkpt lat="45.13526" lon="5.89951">
        <ele>1750.6979980469</ele>
        <time>2012-12-16T12:23:22Z</time>
      </trkpt>
      <trkpt lat="45.13526" lon="5.89951">
        <ele>1750.6979980469</ele>
        <time>2012-12-16T12:24:22Z</time>
      </trkpt>
      <trkpt lat="45.13526" lon="5.89951">
        <ele>1750.6979980469</ele>
        <time>2012-12-16T12:25:22Z</time>
      </trkpt>
      <trkpt lat="45.13526" lon="5.89951">
        <ele>1750.6979980469</ele>
        <time>2012-12-16T12:26:22Z</time>
      </trkpt>
      <trkpt lat="45.13526" lon="5.89951">
        <ele>1750.6979980469</ele>
        <time>2012-12-16T12:27:22Z</time>
      </trkpt>
      <trkpt lat="45.13526" lon="5.89951">
        <ele>1750.6979980469</ele>
        <time>2012-12-16T12:28:22Z</time>
      </trkpt>
      <trkpt lat="45.13526" lon="5.89951">
        <ele>1750.6979980469</ele>
        <time>2012-12-16T12:29:22Z</time>
      </trkpt>
      <trkpt lat="45.13526" lon="5.89951">
        <ele>1750.6979980469</ele>
        <time>2012-12-16T12:30:22Z</time>
      </trkpt>
      <trkpt lat="45.13525" lon="5.89951">
        <ele>1750.6979980469</ele>
        <time>2012-12-16T12:31:22Z</time>
      </trkpt>
      <trkpt lat="45.13525" lon="5.89951">
        <ele>1750.6979980469</ele>
        <time>2012-12-16T12:32:22Z</time>
      </trkpt>
      <trkpt lat="45.13525" lon="5.89952">
        <ele>1750.6979980469</ele>
        <time>2012-12-16T12:33:22Z</time>
      </trkpt>
      <trkpt lat="45.13525" lon="5.89952">
        <ele>1750.6979980469</ele>
        <time>2012-12-16T12:34:22Z</time>
      </trkpt>
      <trkpt lat="45.13525" lon="5.89952">
        <ele>1750.6979980469</ele>
        <time>2012-12-16T12:35:22Z</time>
      </trkpt>
      <trkpt lat="45.13525" lon="5.89952">
        <ele>1750.6979980469</ele>
        <time>2012-12-16T12:36:22Z</time>
      </trkpt>
      <trkpt lat="45.13525" lon="5.89952">
        <ele>1750.2175292969</ele>
        <time>2012-12-16T12:37:22Z</time>
      </trkpt>
      <trkpt lat="45.13525" lon="5.89952">
        <ele>1750.2175292969</ele>
        <time>2012-12-16T12:38:22Z</time>
      </trkpt>
      <trkpt lat="45.13525" lon="5.89952">
        <ele>1750.2175292969</ele>
        <time>2012-12-16T12:39:22Z</time>
      </trkpt>
      <trkpt lat="45.13525" lon="5.89952">
        <ele>1750.2175292969</ele>
        <time>2012-12-16T12:40:22Z</time>
      </trkpt>
      <trkpt lat="45.13525" lon="5.89952">
        <ele>1750.2175292969</ele>
        <time>2012-12-16T12:41:22Z</time>
      </trkpt>
      <trkpt lat="45.13525" lon="5.89952">
        <ele>1750.2175292969</ele>
        <time>2012-12-16T12:42:22Z</time>
      </trkpt>
      <trkpt lat="45.13525" lon="5.89952">
        <ele>1749.7368164062</ele>
        <time>2012-12-16T12:43:22Z</time>
      </trkpt>
      <trkpt lat="45.13525" lon="5.89952">
        <ele>1749.7368164062</ele>
        <time>2012-12-16T12:44:22Z</time>
      </trkpt>
      <trkpt lat="45.13525" lon="5.89952">
        <ele>1749.7368164062</ele>
        <time>2012-12-16T12:45:22Z</time>
      </trkpt>
      <trkpt lat="45.13525" lon="5.89952">
        <ele>1749.2561035156</ele>
        <time>2012-12-16T12:46:22Z</time>
      </trkpt>
      <trkpt lat="45.13525" lon="5.89951">
        <ele>1749.2561035156</ele>
        <time>2012-12-16T12:47:22Z</time>
      </trkpt>
      <trkpt lat="45.13525" lon="5.89951">
        <ele>1749.2561035156</ele>
        <time>2012-12-16T12:48:22Z</time>
      </trkpt>
      <trkpt lat="45.13525" lon="5.89951">
        <ele>1748.775390625</ele>
        <time>2012-12-16T12:49:22Z</time>
      </trkpt>
      <trkpt lat="45.13525" lon="5.89951">
        <ele>1748.775390625</ele>
        <time>2012-12-16T12:50:22Z</time>
      </trkpt>
      <trkpt lat="45.13525" lon="5.89951">
        <ele>1748.775390625</ele>
        <time>2012-12-16T12:51:22Z</time>
      </trkpt>
      <trkpt lat="45.13525" lon="5.89951">
        <ele>1748.2946777344</ele>
        <time>2012-12-16T12:52:22Z</time>
      </trkpt>
      <trkpt lat="45.13525" lon="5.8995">
        <ele>1747.8142089844</ele>
        <time>2012-12-16T12:53:22Z</time>
      </trkpt>
      <trkpt lat="45.13525" lon="5.89949">
        <ele>1747.3334960938</ele>
        <time>2012-12-16T12:54:22Z</time>
      </trkpt>
      <trkpt lat="45.13525" lon="5.89949">
        <ele>1746.3723144531</ele>
        <time>2012-12-16T12:55:22Z</time>
      </trkpt>
      <trkpt lat="45.13526" lon="5.8995">
        <ele>1739.6428222656</ele>
        <time>2012-12-16T12:56:22Z</time>
      </trkpt>
      <trkpt lat="45.13526" lon="5.8995">
        <ele>1739.6428222656</ele>
        <time>2012-12-16T12:57:22Z</time>
      </trkpt>
      <trkpt lat="45.13526" lon="5.8995">
        <ele>1739.6428222656</ele>
        <time>2012-12-16T12:58:22Z</time>
      </trkpt>
      <trkpt lat="45.13526" lon="5.89949">
        <ele>1740.1237792969</ele>
        <time>2012-12-16T12:59:22Z</time>
      </trkpt>
      <trkpt lat="45.13527" lon="5.89949">
        <ele>1740.6042480469</ele>
        <time>2012-12-16T13:00:22Z</time>
      </trkpt>
      <trkpt lat="45.13527" lon="5.89948">
        <ele>1740.1237792969</ele>
        <time>2012-12-16T13:01:22Z</time>
      </trkpt>
      <trkpt lat="45.13527" lon="5.89948">
        <ele>1740.1237792969</ele>
        <time>2012-12-16T13:02:22Z</time>
      </trkpt>
      <trkpt lat="45.13527" lon="5.89948">
        <ele>1740.6042480469</ele>
        <time>2012-12-16T13:03:22Z</time>
      </trkpt>
      <trkpt lat="45.13527" lon="5.89948">
        <ele>1740.1237792969</ele>
        <time>2012-12-16T13:04:22Z</time>
      </trkpt>
      <trkpt lat="45.13527" lon="5.89947">
        <ele>1740.1237792969</ele>
        <time>2012-12-16T13:05:22Z</time>
      </trkpt>
      <trkpt lat="45.13527" lon="5.89947">
        <ele>1740.1237792969</ele>
        <time>2012-12-16T13:06:22Z</time>
      </trkpt>
      <trkpt lat="45.13527" lon="5.89947">
        <ele>1740.1237792969</ele>
        <time>2012-12-16T13:07:22Z</time>
      </trkpt>
      <trkpt lat="45.13527" lon="5.89947">
        <ele>1740.1237792969</ele>
        <time>2012-12-16T13:08:22Z</time>
      </trkpt>
      <trkpt lat="45.13527" lon="5.89946">
        <ele>1740.1237792969</ele>
        <time>2012-12-16T13:09:22Z</time>
      </trkpt>
      <trkpt lat="45.13527" lon="5.89947">
        <ele>1739.6428222656</ele>
        <time>2012-12-16T13:10:22Z</time>
      </trkpt>
      <trkpt lat="45.13527" lon="5.89946">
        <ele>1739.6428222656</ele>
        <time>2012-12-16T13:11:22Z</time>
      </trkpt>
      <trkpt lat="45.13527" lon="5.89946">
        <ele>1739.162109375</ele>
        <time>2012-12-16T13:12:22Z</time>
      </trkpt>
      <trkpt lat="45.13527" lon="5.89946">
        <ele>1739.162109375</ele>
        <time>2012-12-16T13:13:22Z</time>
      </trkpt>
      <trkpt lat="45.13527" lon="5.89946">
        <ele>1739.162109375</ele>
        <time>2012-12-16T13:14:22Z</time>
      </trkpt>
      <trkpt lat="45.13527" lon="5.89947">
        <ele>1738.681640625</ele>
        <time>2012-12-16T13:15:22Z</time>
      </trkpt>
      <trkpt lat="45.13527" lon="5.89947">
        <ele>1738.681640625</ele>
        <time>2012-12-16T13:16:22Z</time>
      </trkpt>
      <trkpt lat="45.13526" lon="5.89947">
        <ele>1738.681640625</ele>
        <time>2012-12-16T13:17:22Z</time>
      </trkpt>
      <trkpt lat="45.13526" lon="5.89947">
        <ele>1738.681640625</ele>
        <time>2012-12-16T13:18:22Z</time>
      </trkpt>
      <trkpt lat="45.13526" lon="5.89947">
        <ele>1738.681640625</ele>
        <time>2012-12-16T13:19:22Z</time>
      </trkpt>
      <trkpt lat="45.13526" lon="5.89947">
        <ele>1738.681640625</ele>
        <time>2012-12-16T13:20:22Z</time>
      </trkpt>
      <trkpt lat="45.13526" lon="5.89947">
        <ele>1738.681640625</ele>
        <time>2012-12-16T13:21:22Z</time>
      </trkpt>
      <trkpt lat="45.13526" lon="5.89947">
        <ele>1738.2009277344</ele>
        <time>2012-12-16T13:22:22Z</time>
      </trkpt>
      <trkpt lat="45.13526" lon="5.89947">
        <ele>1738.2009277344</ele>
        <time>2012-12-16T13:23:22Z</time>
      </trkpt>
      <trkpt lat="45.13526" lon="5.89947">
        <ele>1738.2009277344</ele>
        <time>2012-12-16T13:24:22Z</time>
      </trkpt>
      <trkpt lat="45.13526" lon="5.89947">
        <ele>1738.2009277344</ele>
        <time>2012-12-16T13:25:22Z</time>
      </trkpt>
      <trkpt lat="45.13526" lon="5.89946">
        <ele>1738.2009277344</ele>
        <time>2012-12-16T13:26:22Z</time>
      </trkpt>
      <trkpt lat="45.13526" lon="5.89946">
        <ele>1738.2009277344</ele>
        <time>2012-12-16T13:27:22Z</time>
      </trkpt>
      <trkpt lat="45.13525" lon="5.89946">
        <ele>1738.2009277344</ele>
        <time>2012-12-16T13:28:22Z</time>
      </trkpt>
      <trkpt lat="45.13525" lon="5.89945">
        <ele>1738.681640625</ele>
        <time>2012-12-16T13:29:22Z</time>
      </trkpt>
      <trkpt lat="45.13525" lon="5.89945">
        <ele>1738.681640625</ele>
        <time>2012-12-16T13:30:22Z</time>
      </trkpt>
      <trkpt lat="45.13525" lon="5.89945">
        <ele>1738.681640625</ele>
        <time>2012-12-16T13:31:22Z</time>
      </trkpt>
      <trkpt lat="45.13525" lon="5.89944">
        <ele>1738.681640625</ele>
        <time>2012-12-16T13:32:22Z</time>
      </trkpt>
      <trkpt lat="45.13525" lon="5.89944">
        <ele>1739.162109375</ele>
        <time>2012-12-16T13:33:22Z</time>
      </trkpt>
      <trkpt lat="45.13525" lon="5.89944">
        <ele>1739.162109375</ele>
        <time>2012-12-16T13:34:22Z</time>
      </trkpt>
      <trkpt lat="45.13525" lon="5.89943">
        <ele>1739.162109375</ele>
        <time>2012-12-16T13:35:22Z</time>
      </trkpt>
      <trkpt lat="45.13524" lon="5.89943">
        <ele>1739.162109375</ele>
        <time>2012-12-16T13:36:22Z</time>
      </trkpt>
      <trkpt lat="45.13524" lon="5.89943">
        <ele>1739.162109375</ele>
        <time>2012-12-16T13:37:22Z</time>
      </trkpt>
      <trkpt lat="45.13524" lon="5.89943">
        <ele>1739.6428222656</ele>
        <time>2012-12-16T13:38:22Z</time>
      </trkpt>
      <trkpt lat="45.13524" lon="5.89943">
        <ele>1739.6428222656</ele>
        <time>2012-12-16T13:39:22Z</time>
      </trkpt>
      <trkpt lat="45.13524" lon="5.89942">
        <ele>1739.6428222656</ele>
        <time>2012-12-16T13:40:22Z</time>
      </trkpt>
      <trkpt lat="45.13524" lon="5.89942">
        <ele>1740.1237792969</ele>
        <time>2012-12-16T13:41:22Z</time>
      </trkpt>
      <trkpt lat="45.13523" lon="5.89942">
        <ele>1740.6042480469</ele>
        <time>2012-12-16T13:42:22Z</time>
      </trkpt>
      <trkpt lat="45.13523" lon="5.89942">
        <ele>1740.6042480469</ele>
        <time>2012-12-16T13:43:22Z</time>
      </trkpt>
      <trkpt lat="45.13523" lon="5.89941">
        <ele>1740.6042480469</ele>
        <time>2012-12-16T13:44:22Z</time>
      </trkpt>
      <trkpt lat="45.13523" lon="5.89942">
        <ele>1740.6042480469</ele>
        <time>2012-12-16T13:45:22Z</time>
      </trkpt>
      <trkpt lat="45.13523" lon="5.89942">
        <ele>1740.6042480469</ele>
        <time>2012-12-16T13:46:22Z</time>
      </trkpt>
      <trkpt lat="45.13523" lon="5.89942">
        <ele>1740.6042480469</ele>
        <time>2012-12-16T13:47:22Z</time>
      </trkpt>
      <trkpt lat="45.13524" lon="5.89939">
        <ele>1739.6428222656</ele>
        <time>2012-12-16T13:48:22Z</time>
      </trkpt>
      <trkpt lat="45.13524" lon="5.89939">
        <ele>1739.6428222656</ele>
        <time>2012-12-16T13:49:22Z</time>
      </trkpt>
      <trkpt lat="45.1352" lon="5.89966">
        <ele>1742.5270996094</ele>
        <time>2012-12-16T13:50:22Z</time>
      </trkpt>
      <trkpt lat="45.13504" lon="5.90027">
        <ele>1750.2175292969</ele>
        <time>2012-12-16T13:51:22Z</time>
      </trkpt>
      <trkpt lat="45.13477" lon="5.9006">
        <ele>1765.1179199219</ele>
        <time>2012-12-16T13:52:22Z</time>
      </trkpt>
      <trkpt lat="45.13488" lon="5.90099">
        <ele>1782.4216308594</ele>
        <time>2012-12-16T13:53:22Z</time>
      </trkpt>
      <trkpt lat="45.13484" lon="5.90105">
        <ele>1784.3442382812</ele>
        <time>2012-12-16T13:54:22Z</time>
      </trkpt>
      <trkpt lat="45.13485" lon="5.90107">
        <ele>1784.8249511719</ele>
        <time>2012-12-16T13:55:22Z</time>
      </trkpt>
      <trkpt lat="45.13477" lon="5.90135">
        <ele>1792.515625</ele>
        <time>2012-12-16T13:56:22Z</time>
      </trkpt>
      <trkpt lat="45.13468" lon="5.90204">
        <ele>1800.2060546875</ele>
        <time>2012-12-16T13:57:22Z</time>
      </trkpt>
      <trkpt lat="45.13478" lon="5.90264">
        <ele>1798.283203125</ele>
        <time>2012-12-16T13:58:22Z</time>
      </trkpt>
      <trkpt lat="45.13473" lon="5.90353">
        <ele>1799.7253417969</ele>
        <time>2012-12-16T13:59:22Z</time>
      </trkpt>
      <trkpt lat="45.13466" lon="5.90436">
        <ele>1806.9353027344</ele>
        <time>2012-12-16T14:00:22Z</time>
      </trkpt>
      <trkpt lat="45.13461" lon="5.9049">
        <ele>1819.9128417969</ele>
        <time>2012-12-16T14:01:22Z</time>
      </trkpt>
      <trkpt lat="45.13461" lon="5.9054">
        <ele>1831.9294433594</ele>
        <time>2012-12-16T14:02:22Z</time>
      </trkpt>
      <trkpt lat="45.13451" lon="5.90577">
        <ele>1842.9846191406</ele>
        <time>2012-12-16T14:03:22Z</time>
      </trkpt>
      <trkpt lat="45.1344" lon="5.90625">
        <ele>1849.7138671875</ele>
        <time>2012-12-16T14:04:22Z</time>
      </trkpt>
      <trkpt lat="45.13436" lon="5.90649">
        <ele>1854.5205078125</ele>
        <time>2012-12-16T14:05:22Z</time>
      </trkpt>
      <trkpt lat="45.13449" lon="5.90673">
        <ele>1862.6916503906</ele>
        <time>2012-12-16T14:06:22Z</time>
      </trkpt>
      <trkpt lat="45.13457" lon="5.90718">
        <ele>1874.2275390625</ele>
        <time>2012-12-16T14:07:22Z</time>
      </trkpt>
      <trkpt lat="45.13445" lon="5.90771">
        <ele>1888.1667480469</ele>
        <time>2012-12-16T14:08:22Z</time>
      </trkpt>
      <trkpt lat="45.13441" lon="5.90818">
        <ele>1900.6638183594</ele>
        <time>2012-12-16T14:09:22Z</time>
      </trkpt>
      <trkpt lat="45.13427" lon="5.90862">
        <ele>1905.9509277344</ele>
        <time>2012-12-16T14:10:22Z</time>
      </trkpt>
      <trkpt lat="45.13412" lon="5.90866">
        <ele>1908.8349609375</ele>
        <time>2012-12-16T14:11:22Z</time>
      </trkpt>
      <trkpt lat="45.13414" lon="5.90866">
        <ele>1908.3542480469</ele>
        <time>2012-12-16T14:12:22Z</time>
      </trkpt>
      <trkpt lat="45.13404" lon="5.90884">
        <ele>1910.2768554688</ele>
        <time>2012-12-16T14:13:22Z</time>
      </trkpt>
      <trkpt lat="45.13405" lon="5.90887">
        <ele>1909.3156738281</ele>
        <time>2012-12-16T14:14:22Z</time>
      </trkpt>
      <trkpt lat="45.13421" lon="5.90902">
        <ele>1913.6413574219</ele>
        <time>2012-12-16T14:15:22Z</time>
      </trkpt>
      <trkpt lat="45.13406" lon="5.9092">
        <ele>1926.6193847656</ele>
        <time>2012-12-16T14:16:22Z</time>
      </trkpt>
      <trkpt lat="45.13403" lon="5.90935">
        <ele>1932.8679199219</ele>
        <time>2012-12-16T14:17:22Z</time>
      </trkpt>
      <trkpt lat="45.13404" lon="5.90942">
        <ele>1933.8293457031</ele>
        <time>2012-12-16T14:18:22Z</time>
      </trkpt>
      <trkpt lat="45.13379" lon="5.90955">
        <ele>1947.2875976562</ele>
        <time>2012-12-16T14:19:22Z</time>
      </trkpt>
      <trkpt lat="45.13377" lon="5.90985">
        <ele>1952.0942382812</ele>
        <time>2012-12-16T14:20:22Z</time>
      </trkpt>
      <trkpt lat="45.1337" lon="5.90985">
        <ele>1953.5363769531</ele>
        <time>2012-12-16T14:21:22Z</time>
      </trkpt>
      <trkpt lat="45.1336" lon="5.90988">
        <ele>1965.072265625</ele>
        <time>2012-12-16T14:22:22Z</time>
      </trkpt>
      <trkpt lat="45.1336" lon="5.90988">
        <ele>1966.5141601562</ele>
        <time>2012-12-16T14:23:22Z</time>
      </trkpt>
      <trkpt lat="45.1336" lon="5.91002">
        <ele>1976.6079101562</ele>
        <time>2012-12-16T14:24:22Z</time>
      </trkpt>
      <trkpt lat="45.1336" lon="5.91009">
        <ele>1977.0886230469</ele>
        <time>2012-12-16T14:25:22Z</time>
      </trkpt>
      <trkpt lat="45.13355" lon="5.91012">
        <ele>1979.9724121094</ele>
        <time>2012-12-16T14:26:22Z</time>
      </trkpt>
      <trkpt lat="45.13348" lon="5.90996">
        <ele>1984.2985839844</ele>
        <time>2012-12-16T14:27:22Z</time>
      </trkpt>
      <trkpt lat="45.13343" lon="5.90997">
        <ele>1989.1049804688</ele>
        <time>2012-12-16T14:28:22Z</time>
      </trkpt>
      <trkpt lat="45.13343" lon="5.90999">
        <ele>1989.5856933594</ele>
        <time>2012-12-16T14:29:22Z</time>
      </trkpt>
      <trkpt lat="45.13338" lon="5.91003">
        <ele>1994.3920898438</ele>
        <time>2012-12-16T14:30:22Z</time>
      </trkpt>
      <trkpt lat="45.13333" lon="5.91007">
        <ele>1997.2763671875</ele>
        <time>2012-12-16T14:31:22Z</time>
      </trkpt>
      <trkpt lat="45.13335" lon="5.9101">
        <ele>2002.0827636719</ele>
        <time>2012-12-16T14:32:22Z</time>
      </trkpt>
      <trkpt lat="45.1332" lon="5.91029">
        <ele>2008.8120117188</ele>
        <time>2012-12-16T14:33:22Z</time>
      </trkpt>
      <trkpt lat="45.13313" lon="5.91031">
        <ele>2015.5415039062</ele>
        <time>2012-12-16T14:34:22Z</time>
      </trkpt>
      <trkpt lat="45.133" lon="5.91039">
        <ele>2024.1931152344</ele>
        <time>2012-12-16T14:35:22Z</time>
      </trkpt>
      <trkpt lat="45.13291" lon="5.91062">
        <ele>2030.4418945312</ele>
        <time>2012-12-16T14:36:22Z</time>
      </trkpt>
      <trkpt lat="45.13288" lon="5.91077">
        <ele>2029.9611816406</ele>
        <time>2012-12-16T14:37:22Z</time>
      </trkpt>
      <trkpt lat="45.13276" lon="5.91083">
        <ele>2028.9997558594</ele>
        <time>2012-12-16T14:38:22Z</time>
      </trkpt>
      <trkpt lat="45.13255" lon="5.9108">
        <ele>2028.9997558594</ele>
        <time>2012-12-16T14:39:22Z</time>
      </trkpt>
      <trkpt lat="45.13257" lon="5.91075">
        <ele>2028.9997558594</ele>
        <time>2012-12-16T14:40:22Z</time>
      </trkpt>
      <trkpt lat="45.13256" lon="5.91074">
        <ele>2029.48046875</ele>
        <time>2012-12-16T14:41:22Z</time>
      </trkpt>
      <trkpt lat="45.13256" lon="5.91074">
        <ele>2029.48046875</ele>
        <time>2012-12-16T14:42:22Z</time>
      </trkpt>
      <trkpt lat="45.13257" lon="5.91075">
        <ele>2029.48046875</ele>
        <time>2012-12-16T14:43:22Z</time>
      </trkpt>
      <trkpt lat="45.13256" lon="5.91075">
        <ele>2029.48046875</ele>
        <time>2012-12-16T14:44:22Z</time>
      </trkpt>
      <trkpt lat="45.13256" lon="5.91075">
        <ele>2028.9997558594</ele>
        <time>2012-12-16T14:45:22Z</time>
      </trkpt>
      <trkpt lat="45.13256" lon="5.91075">
        <ele>2028.9997558594</ele>
        <time>2012-12-16T14:46:22Z</time>
      </trkpt>
      <trkpt lat="45.13256" lon="5.91075">
        <ele>2028.5192871094</ele>
        <time>2012-12-16T14:47:22Z</time>
      </trkpt>
      <trkpt lat="45.13256" lon="5.91076">
        <ele>2028.5192871094</ele>
        <time>2012-12-16T14:48:22Z</time>
      </trkpt>
      <trkpt lat="45.13259" lon="5.91062">
        <ele>2027.0771484375</ele>
        <time>2012-12-16T14:49:22Z</time>
      </trkpt>
      <trkpt lat="45.13245" lon="5.91055">
        <ele>2019.38671875</ele>
        <time>2012-12-16T14:50:22Z</time>
      </trkpt>
      <trkpt lat="45.1323" lon="5.91039">
        <ele>2017.4638671875</ele>
        <time>2012-12-16T14:51:22Z</time>
      </trkpt>
      <trkpt lat="45.13186" lon="5.91101">
        <ele>2007.3701171875</ele>
        <time>2012-12-16T14:52:22Z</time>
      </trkpt>
      <trkpt lat="45.13141" lon="5.91159">
        <ele>2004.966796875</ele>
        <time>2012-12-16T14:53:22Z</time>
      </trkpt>
      <trkpt lat="45.13088" lon="5.91182">
        <ele>2010.7346191406</ele>
        <time>2012-12-16T14:54:22Z</time>
      </trkpt>
      <trkpt lat="45.13062" lon="5.9118">
        <ele>2020.8286132812</ele>
        <time>2012-12-16T14:55:22Z</time>
      </trkpt>
      <trkpt lat="45.13056" lon="5.91168">
        <ele>2029.48046875</ele>
        <time>2012-12-16T14:56:22Z</time>
      </trkpt>
      <trkpt lat="45.13067" lon="5.91139">
        <ele>2039.57421875</ele>
        <time>2012-12-16T14:57:22Z</time>
      </trkpt>
      <trkpt lat="45.13068" lon="5.91141">
        <ele>2039.57421875</ele>
        <time>2012-12-16T14:58:22Z</time>
      </trkpt>
      <trkpt lat="45.13068" lon="5.91141">
        <ele>2039.57421875</ele>
        <time>2012-12-16T14:59:22Z</time>
      </trkpt>
      <trkpt lat="45.13071" lon="5.91134">
        <ele>2039.57421875</ele>
        <time>2012-12-16T15:00:22Z</time>
      </trkpt>
      <trkpt lat="45.13071" lon="5.91134">
        <ele>2039.57421875</ele>
        <time>2012-12-16T15:01:22Z</time>
      </trkpt>
      <trkpt lat="45.13071" lon="5.91134">
        <ele>2039.57421875</ele>
        <time>2012-12-16T15:02:22Z</time>
      </trkpt>
      <trkpt lat="45.13034" lon="5.91143">
        <ele>2046.3037109375</ele>
        <time>2012-12-16T15:03:22Z</time>
      </trkpt>
      <trkpt lat="45.12999" lon="5.91137">
        <ele>2055.9165039062</ele>
        <time>2012-12-16T15:04:22Z</time>
      </trkpt>
      <trkpt lat="45.12965" lon="5.91128">
        <ele>2066.0104980469</ele>
        <time>2012-12-16T15:05:22Z</time>
      </trkpt>
      <trkpt lat="45.12928" lon="5.91091">
        <ele>2076.5852050781</ele>
        <time>2012-12-16T15:06:22Z</time>
      </trkpt>
      <trkpt lat="45.12912" lon="5.91066">
        <ele>2086.6787109375</ele>
        <time>2012-12-16T15:07:22Z</time>
      </trkpt>
      <trkpt lat="45.12884" lon="5.91068">
        <ele>2101.0986328125</ele>
        <time>2012-12-16T15:08:22Z</time>
      </trkpt>
      <trkpt lat="45.12851" lon="5.9105">
        <ele>2108.30859375</ele>
        <time>2012-12-16T15:09:22Z</time>
      </trkpt>
      <trkpt lat="45.12832" lon="5.91046">
        <ele>2110.2312011719</ele>
        <time>2012-12-16T15:10:22Z</time>
      </trkpt>
      <trkpt lat="45.1283" lon="5.91047">
        <ele>2108.7893066406</ele>
        <time>2012-12-16T15:11:22Z</time>
      </trkpt>
      <trkpt lat="45.1282" lon="5.91038">
        <ele>2108.30859375</ele>
        <time>2012-12-16T15:12:22Z</time>
      </trkpt>
      <trkpt lat="45.12772" lon="5.90993">
        <ele>2114.0764160156</ele>
        <time>2012-12-16T15:13:22Z</time>
      </trkpt>
      <trkpt lat="45.12747" lon="5.90954">
        <ele>2121.2861328125</ele>
        <time>2012-12-16T15:14:22Z</time>
      </trkpt>
      <trkpt lat="45.12727" lon="5.90916">
        <ele>2132.3415527344</ele>
        <time>2012-12-16T15:15:22Z</time>
      </trkpt>
      <trkpt lat="45.12702" lon="5.90879">
        <ele>2142.916015625</ele>
        <time>2012-12-16T15:16:22Z</time>
      </trkpt>
      <trkpt lat="45.12672" lon="5.90872">
        <ele>2152.0483398438</ele>
        <time>2012-12-16T15:17:22Z</time>
      </trkpt>
      <trkpt lat="45.12647" lon="5.90889">
        <ele>2159.7390136719</ele>
        <time>2012-12-16T15:18:22Z</time>
      </trkpt>
      <trkpt lat="45.12618" lon="5.90923">
        <ele>2171.7553710938</ele>
        <time>2012-12-16T15:19:22Z</time>
      </trkpt>
      <trkpt lat="45.12596" lon="5.90948">
        <ele>2177.5234375</ele>
        <time>2012-12-16T15:20:22Z</time>
      </trkpt>
      <trkpt lat="45.12596" lon="5.90916">
        <ele>2181.3686523438</ele>
        <time>2012-12-16T15:21:22Z</time>
      </trkpt>
      <trkpt lat="45.12594" lon="5.90855">
        <ele>2192.4240722656</ele>
        <time>2012-12-16T15:22:22Z</time>
      </trkpt>
      <trkpt lat="45.12592" lon="5.90829">
        <ele>2198.1916503906</ele>
        <time>2012-12-16T15:23:22Z</time>
      </trkpt>
      <trkpt lat="45.12583" lon="5.90774">
        <ele>2214.0534667969</ele>
        <time>2012-12-16T15:24:22Z</time>
      </trkpt>
      <trkpt lat="45.12562" lon="5.90748">
        <ele>2225.1086425781</ele>
        <time>2012-12-16T15:25:22Z</time>
      </trkpt>
      <trkpt lat="45.1256" lon="5.90741">
        <ele>2223.6667480469</ele>
        <time>2012-12-16T15:26:22Z</time>
      </trkpt>
      <trkpt lat="45.1256" lon="5.90741">
        <ele>2223.1862792969</ele>
        <time>2012-12-16T15:27:22Z</time>
      </trkpt>
      <trkpt lat="45.1256" lon="5.90741">
        <ele>2223.1862792969</ele>
        <time>2012-12-16T15:28:22Z</time>
      </trkpt>
      <trkpt lat="45.1256" lon="5.90741">
        <ele>2223.1862792969</ele>
        <time>2012-12-16T15:29:22Z</time>
      </trkpt>
      <trkpt lat="45.1256" lon="5.90741">
        <ele>2223.1862792969</ele>
        <time>2012-12-16T15:30:22Z</time>
      </trkpt>
      <trkpt lat="45.1256" lon="5.90741">
        <ele>2222.7055664062</ele>
        <time>2012-12-16T15:31:22Z</time>
      </trkpt>
      <trkpt lat="45.1256" lon="5.90741">
        <ele>2222.7055664062</ele>
        <time>2012-12-16T15:32:22Z</time>
      </trkpt>
      <trkpt lat="45.1256" lon="5.90742">
        <ele>2222.7055664062</ele>
        <time>2012-12-16T15:33:22Z</time>
      </trkpt>
      <trkpt lat="45.1256" lon="5.90742">
        <ele>2222.2248535156</ele>
        <time>2012-12-16T15:34:22Z</time>
      </trkpt>
      <trkpt lat="45.12564" lon="5.90721">
        <ele>2225.1086425781</ele>
        <time>2012-12-16T15:35:22Z</time>
      </trkpt>
      <trkpt lat="45.12569" lon="5.90654">
        <ele>2236.1640625</ele>
        <time>2012-12-16T15:36:22Z</time>
      </trkpt>
      <trkpt lat="45.12552" lon="5.90599">
        <ele>2243.3737792969</ele>
        <time>2012-12-16T15:37:22Z</time>
      </trkpt>
      <trkpt lat="45.12551" lon="5.90524">
        <ele>2250.5834960938</ele>
        <time>2012-12-16T15:38:22Z</time>
      </trkpt>
      <trkpt lat="45.12557" lon="5.90428">
        <ele>2248.1801757812</ele>
        <time>2012-12-16T15:39:22Z</time>
      </trkpt>
      <trkpt lat="45.12565" lon="5.9034">
        <ele>2250.5834960938</ele>
        <time>2012-12-16T15:40:22Z</time>
      </trkpt>
      <trkpt lat="45.12589" lon="5.90325">
        <ele>2252.5063476562</ele>
        <time>2012-12-16T15:41:22Z</time>
      </trkpt>
      <trkpt lat="45.1259" lon="5.90323">
        <ele>2250.5834960938</ele>
        <time>2012-12-16T15:42:22Z</time>
      </trkpt>
      <trkpt lat="45.1259" lon="5.90323">
        <ele>2250.5834960938</ele>
        <time>2012-12-16T15:43:22Z</time>
      </trkpt>
      <trkpt lat="45.12589" lon="5.90324">
        <ele>2251.0642089844</ele>
        <time>2012-12-16T15:44:22Z</time>
      </trkpt>
      <trkpt lat="45.126" lon="5.90541">
        <ele>2242.8930664062</ele>
        <time>2012-12-16T15:45:22Z</time>
      </trkpt>
      <trkpt lat="45.1266" lon="5.907">
        <ele>2205.4018554688</ele>
        <time>2012-12-16T15:46:22Z</time>
      </trkpt>
      <trkpt lat="45.12668" lon="5.90701">
        <ele>2201.0756835938</ele>
        <time>2012-12-16T15:47:22Z</time>
      </trkpt>
      <trkpt lat="45.12668" lon="5.90702">
        <ele>2201.0756835938</ele>
        <time>2012-12-16T15:48:22Z</time>
      </trkpt>
      <trkpt lat="45.12719" lon="5.90746">
        <ele>2191.943359375</ele>
        <time>2012-12-16T15:49:22Z</time>
      </trkpt>
      <trkpt lat="45.12719" lon="5.90746">
        <ele>2191.943359375</ele>
        <time>2012-12-16T15:50:22Z</time>
      </trkpt>
      <trkpt lat="45.12725" lon="5.90638">
        <ele>2161.1811523438</ele>
        <time>2012-12-16T15:51:22Z</time>
      </trkpt>
      <trkpt lat="45.12851" lon="5.90386">
        <ele>2082.8334960938</ele>
        <time>2012-12-16T15:52:22Z</time>
      </trkpt>
      <trkpt lat="45.12899" lon="5.90386">
        <ele>2066.0104980469</ele>
        <time>2012-12-16T15:53:22Z</time>
      </trkpt>
      <trkpt lat="45.12898" lon="5.90387">
        <ele>2065.5300292969</ele>
        <time>2012-12-16T15:54:22Z</time>
      </trkpt>
      <trkpt lat="45.12898" lon="5.90387">
        <ele>2065.5300292969</ele>
        <time>2012-12-16T15:55:22Z</time>
      </trkpt>
      <trkpt lat="45.12898" lon="5.90387">
        <ele>2065.5300292969</ele>
        <time>2012-12-16T15:56:22Z</time>
      </trkpt>
      <trkpt lat="45.12898" lon="5.90388">
        <ele>2065.5300292969</ele>
        <time>2012-12-16T15:57:22Z</time>
      </trkpt>
      <trkpt lat="45.12899" lon="5.90388">
        <ele>2065.5300292969</ele>
        <time>2012-12-16T15:58:22Z</time>
      </trkpt>
      <trkpt lat="45.12899" lon="5.90388">
        <ele>2065.5300292969</ele>
        <time>2012-12-16T15:59:22Z</time>
      </trkpt>
      <trkpt lat="45.1292" lon="5.90375">
        <ele>2055.9165039062</ele>
        <time>2012-12-16T16:00:22Z</time>
      </trkpt>
      <trkpt lat="45.12975" lon="5.90323">
        <ele>2028.0385742188</ele>
        <time>2012-12-16T16:01:22Z</time>
      </trkpt>
      <trkpt lat="45.13003" lon="5.90152">
        <ele>2001.6022949219</ele>
        <time>2012-12-16T16:02:22Z</time>
      </trkpt>
      <trkpt lat="45.13008" lon="5.89956">
        <ele>1966.9948730469</ele>
        <time>2012-12-16T16:03:22Z</time>
      </trkpt>
      <trkpt lat="45.13022" lon="5.89545">
        <ele>1885.2827148438</ele>
        <time>2012-12-16T16:04:22Z</time>
      </trkpt>
      <trkpt lat="45.1299" lon="5.89293">
        <ele>1828.5649414062</ele>
        <time>2012-12-16T16:05:22Z</time>
      </trkpt>
      <trkpt lat="45.1299" lon="5.89292">
        <ele>1828.0842285156</ele>
        <time>2012-12-16T16:06:22Z</time>
      </trkpt>
      <trkpt lat="45.12958" lon="5.89132">
        <ele>1787.2280273438</ele>
        <time>2012-12-16T16:07:22Z</time>
      </trkpt>
      <trkpt lat="45.13021" lon="5.88914">
        <ele>1748.775390625</ele>
        <time>2012-12-16T16:08:22Z</time>
      </trkpt>
      <trkpt lat="45.13053" lon="5.88892">
        <ele>1743.9689941406</ele>
        <time>2012-12-16T16:09:22Z</time>
      </trkpt>
      <trkpt lat="45.13054" lon="5.88891">
        <ele>1743.48828125</ele>
        <time>2012-12-16T16:10:22Z</time>
      </trkpt>
      <trkpt lat="45.13334" lon="5.89039">
        <ele>1679.560546875</ele>
        <time>2012-12-16T16:11:22Z</time>
      </trkpt>
      <trkpt lat="45.13363" lon="5.88973">
        <ele>1660.3342285156</ele>
        <time>2012-12-16T16:12:22Z</time>
      </trkpt>
      <trkpt lat="45.13478" lon="5.88846">
        <ele>1595.4450683594</ele>
        <time>2012-12-16T16:13:22Z</time>
      </trkpt>
      <trkpt lat="45.13508" lon="5.88854">
        <ele>1565.1638183594</ele>
        <time>2012-12-16T16:14:22Z</time>
      </trkpt>
      <trkpt lat="45.13508" lon="5.88854">
        <ele>1564.6831054688</ele>
        <time>2012-12-16T16:15:22Z</time>
      </trkpt>
      <trkpt lat="45.13508" lon="5.88854">
        <ele>1564.6831054688</ele>
        <time>2012-12-16T16:16:22Z</time>
      </trkpt>
      <trkpt lat="45.13508" lon="5.88854">
        <ele>1564.2023925781</ele>
        <time>2012-12-16T16:17:22Z</time>
      </trkpt>
      <trkpt lat="45.13693" lon="5.88852">
        <ele>1513.2524414062</ele>
        <time>2012-12-16T16:18:22Z</time>
      </trkpt>
      <trkpt lat="45.13917" lon="5.88863">
        <ele>1425.7724609375</ele>
        <time>2012-12-16T16:19:22Z</time>
      </trkpt>
      <trkpt lat="45.13965" lon="5.88915">
        <ele>1407.0268554688</ele>
        <time>2012-12-16T16:20:22Z</time>
      </trkpt>
      <trkpt lat="45.13965" lon="5.88915">
        <ele>1405.1042480469</ele>
        <time>2012-12-16T16:21:22Z</time>
      </trkpt>
      <trkpt lat="45.13965" lon="5.88915">
        <ele>1405.1042480469</ele>
        <time>2012-12-16T16:22:22Z</time>
      </trkpt>
      <trkpt lat="45.13965" lon="5.88915">
        <ele>1405.1042480469</ele>
        <time>2012-12-16T16:23:22Z</time>
      </trkpt>
      <trkpt lat="45.13965" lon="5.88915">
        <ele>1405.1042480469</ele>
        <time>2012-12-16T16:24:22Z</time>
      </trkpt>
      <trkpt lat="45.13965" lon="5.88915">
        <ele>1405.5849609375</ele>
        <time>2012-12-16T16:25:22Z</time>
      </trkpt>
      <trkpt lat="45.13965" lon="5.88915">
        <ele>1405.1042480469</ele>
        <time>2012-12-16T16:26:22Z</time>
      </trkpt>
      <trkpt lat="45.13965" lon="5.88915">
        <ele>1405.1042480469</ele>
        <time>2012-12-16T16:27:22Z</time>
      </trkpt>
      <trkpt lat="45.13965" lon="5.88915">
        <ele>1405.1042480469</ele>
        <time>2012-12-16T16:28:22Z</time>
      </trkpt>
      <trkpt lat="45.13965" lon="5.88915">
        <ele>1405.1042480469</ele>
        <time>2012-12-16T16:29:22Z</time>
      </trkpt>
      <trkpt lat="45.13965" lon="5.88915">
        <ele>1405.1042480469</ele>
        <time>2012-12-16T16:30:22Z</time>
      </trkpt>
      <trkpt lat="45.13965" lon="5.88915">
        <ele>1405.1042480469</ele>
        <time>2012-12-16T16:31:22Z</time>
      </trkpt>
      <trkpt lat="45.13965" lon="5.88915">
        <ele>1405.1042480469</ele>
        <time>2012-12-16T16:31:56Z</time>
      </trkpt>
    </trkseg>
  </trk>
</gpx>